sensor_id;sensor_type;location;lat;lon;timestamp;P1;durP1;ratioP1;P2;durP2;ratioP2
71125;SDS011;58785;55.566;38.058;2023-08-20T00:00:27;33.73;;;17.20;;
71125;SDS011;58785;55.566;38.058;2023-08-20T00:03:03;33.33;;;18.90;;
71125;SDS011;58785;55.566;38.058;2023-08-20T00:05:35;32.70;;;18.50;;
71125;SDS011;58785;55.566;38.058;2023-08-20T00:08:01;34.53;;;19.60;;
71125;SDS011;58785;55.566;38.058;2023-08-20T00:10:27;31.40;;;19.05;;
71125;SDS011;58785;55.566;38.058;2023-08-20T00:12:53;33.63;;;18.43;;
71125;SDS011;58785;55.566;38.058;2023-08-20T00:15:19;33.88;;;18.70;;
71125;SDS011;58785;55.566;38.058;2023-08-20T00:17:45;33.10;;;18.80;;
71125;SDS011;58785;55.566;38.058;2023-08-20T00:20:13;41.67;;;19.65;;
71125;SDS011;58785;55.566;38.058;2023-08-20T00:22:39;33.97;;;19.48;;
71125;SDS011;58785;55.566;38.058;2023-08-20T00:25:07;34.00;;;19.13;;
71125;SDS011;58785;55.566;38.058;2023-08-20T00:27:33;35.95;;;19.25;;
71125;SDS011;58785;55.566;38.058;2023-08-20T00:29:59;32.03;;;19.10;;
71125;SDS011;58785;55.566;38.058;2023-08-20T00:32:24;36.37;;;19.67;;
71125;SDS011;58785;55.566;38.058;2023-08-20T00:34:50;35.10;;;19.07;;
71125;SDS011;58785;55.566;38.058;2023-08-20T00:37:16;33.25;;;19.65;;
71125;SDS011;58785;55.566;38.058;2023-08-20T00:39:42;32.40;;;19.40;;
71125;SDS011;58785;55.566;38.058;2023-08-20T00:42:07;37.10;;;21.35;;
71125;SDS011;58785;55.566;38.058;2023-08-20T00:44:33;33.63;;;19.63;;
71125;SDS011;58785;55.566;38.058;2023-08-20T00:47:00;33.20;;;20.30;;
71125;SDS011;58785;55.566;38.058;2023-08-20T00:49:28;34.67;;;19.77;;
71125;SDS011;58785;55.566;38.058;2023-08-20T00:51:55;34.33;;;20.00;;
71125;SDS011;58785;55.566;38.058;2023-08-20T00:54:22;36.47;;;21.20;;
71125;SDS011;58785;55.566;38.058;2023-08-20T00:56:48;37.92;;;20.73;;
71125;SDS011;58785;55.566;38.058;2023-08-20T00:59:16;33.20;;;20.17;;
71125;SDS011;58785;55.566;38.058;2023-08-20T01:01:42;34.53;;;20.67;;
71125;SDS011;58785;55.566;38.058;2023-08-20T01:04:08;38.85;;;20.13;;
71125;SDS011;58785;55.566;38.058;2023-08-20T01:06:50;36.57;;;20.73;;
71125;SDS011;58785;55.566;38.058;2023-08-20T01:09:53;38.47;;;21.60;;
71125;SDS011;58785;55.566;38.058;2023-08-20T01:12:31;37.75;;;20.10;;
71125;SDS011;58785;55.566;38.058;2023-08-20T01:14:56;37.25;;;20.10;;
71125;SDS011;58785;55.566;38.058;2023-08-20T01:17:23;36.43;;;19.60;;
71125;SDS011;58785;55.566;38.058;2023-08-20T01:19:49;37.08;;;20.50;;
71125;SDS011;58785;55.566;38.058;2023-08-20T01:22:21;39.20;;;20.60;;
71125;SDS011;58785;55.566;38.058;2023-08-20T01:27:59;39.87;;;19.20;;
71125;SDS011;58785;55.566;38.058;2023-08-20T01:30:48;41.15;;;19.55;;
71125;SDS011;58785;55.566;38.058;2023-08-20T01:33:14;37.20;;;20.52;;
71125;SDS011;58785;55.566;38.058;2023-08-20T01:35:41;38.00;;;20.20;;
71125;SDS011;58785;55.566;38.058;2023-08-20T01:38:07;35.20;;;19.47;;
71125;SDS011;58785;55.566;38.058;2023-08-20T01:40:33;36.95;;;19.17;;
71125;SDS011;58785;55.566;38.058;2023-08-20T01:42:59;38.95;;;20.25;;
71125;SDS011;58785;55.566;38.058;2023-08-20T01:45:25;40.07;;;20.63;;
71125;SDS011;58785;55.566;38.058;2023-08-20T01:47:51;35.13;;;20.23;;
71125;SDS011;58785;55.566;38.058;2023-08-20T01:50:17;37.22;;;20.52;;
71125;SDS011;58785;55.566;38.058;2023-08-20T01:52:43;40.03;;;20.25;;
71125;SDS011;58785;55.566;38.058;2023-08-20T01:55:09;32.07;;;18.80;;
71125;SDS011;58785;55.566;38.058;2023-08-20T01:57:36;35.65;;;18.70;;
71125;SDS011;58785;55.566;38.058;2023-08-20T02:00:02;37.25;;;19.48;;
71125;SDS011;58785;55.566;38.058;2023-08-20T02:02:31;31.38;;;18.80;;
71125;SDS011;58785;55.566;38.058;2023-08-20T02:04:57;36.70;;;20.57;;
71125;SDS011;58785;55.566;38.058;2023-08-20T02:07:22;36.78;;;19.02;;
71125;SDS011;58785;55.566;38.058;2023-08-20T02:09:48;33.50;;;18.70;;
71125;SDS011;58785;55.566;38.058;2023-08-20T02:12:14;32.60;;;18.55;;
71125;SDS011;58785;55.566;38.058;2023-08-20T02:14:40;36.85;;;19.23;;
71125;SDS011;58785;55.566;38.058;2023-08-20T02:17:06;35.33;;;19.93;;
71125;SDS011;58785;55.566;38.058;2023-08-20T02:19:33;33.03;;;19.23;;
71125;SDS011;58785;55.566;38.058;2023-08-20T02:21:59;33.85;;;19.65;;
71125;SDS011;58785;55.566;38.058;2023-08-20T02:24:24;33.50;;;19.50;;
71125;SDS011;58785;55.566;38.058;2023-08-20T02:26:50;32.80;;;18.73;;
71125;SDS011;58785;55.566;38.058;2023-08-20T02:29:16;33.63;;;19.13;;
71125;SDS011;58785;55.566;38.058;2023-08-20T02:31:41;37.28;;;19.52;;
71125;SDS011;58785;55.566;38.058;2023-08-20T02:34:07;32.43;;;18.83;;
71125;SDS011;58785;55.566;38.058;2023-08-20T02:36:33;33.25;;;19.52;;
71125;SDS011;58785;55.566;38.058;2023-08-20T02:38:58;39.87;;;19.33;;
71125;SDS011;58785;55.566;38.058;2023-08-20T02:41:24;37.60;;;20.25;;
71125;SDS011;58785;55.566;38.058;2023-08-20T02:43:50;32.17;;;18.93;;
71125;SDS011;58785;55.566;38.058;2023-08-20T02:46:15;37.47;;;21.30;;
71125;SDS011;58785;55.566;38.058;2023-08-20T02:48:41;42.07;;;22.77;;
71125;SDS011;58785;55.566;38.058;2023-08-20T02:51:06;41.95;;;21.85;;
71125;SDS011;58785;55.566;38.058;2023-08-20T02:53:32;45.13;;;22.77;;
71125;SDS011;58785;55.566;38.058;2023-08-20T02:55:58;36.38;;;20.42;;
71125;SDS011;58785;55.566;38.058;2023-08-20T02:58:24;40.47;;;21.40;;
71125;SDS011;58785;55.566;38.058;2023-08-20T03:00:50;37.80;;;21.25;;
71125;SDS011;58785;55.566;38.058;2023-08-20T03:03:16;36.33;;;20.85;;
71125;SDS011;58785;55.566;38.058;2023-08-20T03:05:42;36.15;;;20.63;;
71125;SDS011;58785;55.566;38.058;2023-08-20T03:08:08;33.97;;;20.23;;
71125;SDS011;58785;55.566;38.058;2023-08-20T03:10:33;41.85;;;20.65;;
71125;SDS011;58785;55.566;38.058;2023-08-20T03:13:00;36.17;;;20.40;;
71125;SDS011;58785;55.566;38.058;2023-08-20T03:15:27;35.27;;;19.87;;
71125;SDS011;58785;55.566;38.058;2023-08-20T03:17:54;37.63;;;19.92;;
71125;SDS011;58785;55.566;38.058;2023-08-20T03:20:20;34.05;;;20.83;;
71125;SDS011;58785;55.566;38.058;2023-08-20T03:22:45;34.00;;;20.70;;
71125;SDS011;58785;55.566;38.058;2023-08-20T03:25:11;36.67;;;20.55;;
71125;SDS011;58785;55.566;38.058;2023-08-20T03:27:37;33.90;;;19.97;;
71125;SDS011;58785;55.566;38.058;2023-08-20T03:30:03;32.60;;;20.50;;
71125;SDS011;58785;55.566;38.058;2023-08-20T03:32:31;36.22;;;20.75;;
71125;SDS011;58785;55.566;38.058;2023-08-20T03:34:57;38.25;;;20.33;;
71125;SDS011;58785;55.566;38.058;2023-08-20T03:37:24;35.00;;;21.45;;
71125;SDS011;58785;55.566;38.058;2023-08-20T03:39:51;34.43;;;19.90;;
71125;SDS011;58785;55.566;38.058;2023-08-20T03:42:17;35.83;;;20.02;;
71125;SDS011;58785;55.566;38.058;2023-08-20T03:44:43;37.08;;;21.00;;
71125;SDS011;58785;55.566;38.058;2023-08-20T03:47:08;32.77;;;20.27;;
71125;SDS011;58785;55.566;38.058;2023-08-20T03:49:34;35.17;;;21.20;;
71125;SDS011;58785;55.566;38.058;2023-08-20T03:52:00;38.20;;;19.57;;
71125;SDS011;58785;55.566;38.058;2023-08-20T03:54:30;30.45;;;18.58;;
71125;SDS011;58785;55.566;38.058;2023-08-20T03:56:55;33.03;;;19.33;;
71125;SDS011;58785;55.566;38.058;2023-08-20T03:59:21;34.88;;;19.42;;
71125;SDS011;58785;55.566;38.058;2023-08-20T04:01:47;35.67;;;19.70;;
71125;SDS011;58785;55.566;38.058;2023-08-20T04:04:13;35.80;;;20.02;;
71125;SDS011;58785;55.566;38.058;2023-08-20T04:06:38;32.57;;;20.53;;
71125;SDS011;58785;55.566;38.058;2023-08-20T04:09:04;34.03;;;20.08;;
71125;SDS011;58785;55.566;38.058;2023-08-20T04:11:31;33.95;;;18.60;;
71125;SDS011;58785;55.566;38.058;2023-08-20T04:13:57;34.93;;;19.67;;
71125;SDS011;58785;55.566;38.058;2023-08-20T04:16:22;34.00;;;20.58;;
71125;SDS011;58785;55.566;38.058;2023-08-20T04:18:48;31.87;;;18.43;;
71125;SDS011;58785;55.566;38.058;2023-08-20T04:21:14;32.40;;;20.20;;
71125;SDS011;58785;55.566;38.058;2023-08-20T04:23:40;31.77;;;18.10;;
71125;SDS011;58785;55.566;38.058;2023-08-20T04:26:07;31.37;;;18.67;;
71125;SDS011;58785;55.566;38.058;2023-08-20T04:28:33;29.48;;;17.77;;
71125;SDS011;58785;55.566;38.058;2023-08-20T04:30:58;28.42;;;16.23;;
71125;SDS011;58785;55.566;38.058;2023-08-20T04:33:26;24.85;;;14.05;;
71125;SDS011;58785;55.566;38.058;2023-08-20T04:35:52;22.87;;;13.33;;
71125;SDS011;58785;55.566;38.058;2023-08-20T04:38:18;24.58;;;13.90;;
71125;SDS011;58785;55.566;38.058;2023-08-20T04:40:47;20.17;;;11.60;;
71125;SDS011;58785;55.566;38.058;2023-08-20T04:43:13;24.83;;;12.95;;
71125;SDS011;58785;55.566;38.058;2023-08-20T04:45:40;21.60;;;12.80;;
71125;SDS011;58785;55.566;38.058;2023-08-20T04:48:06;21.10;;;11.93;;
71125;SDS011;58785;55.566;38.058;2023-08-20T04:50:32;22.70;;;11.80;;
71125;SDS011;58785;55.566;38.058;2023-08-20T04:52:57;19.67;;;10.83;;
71125;SDS011;58785;55.566;38.058;2023-08-20T04:55:27;17.50;;;10.30;;
71125;SDS011;58785;55.566;38.058;2023-08-20T04:57:54;16.67;;;9.40;;
71125;SDS011;58785;55.566;38.058;2023-08-20T05:00:22;15.70;;;9.05;;
71125;SDS011;58785;55.566;38.058;2023-08-20T05:02:48;16.15;;;8.43;;
71125;SDS011;58785;55.566;38.058;2023-08-20T05:05:14;19.03;;;9.07;;
71125;SDS011;58785;55.566;38.058;2023-08-20T05:07:39;16.92;;;9.38;;
71125;SDS011;58785;55.566;38.058;2023-08-20T05:10:06;16.30;;;8.35;;
71125;SDS011;58785;55.566;38.058;2023-08-20T05:12:32;15.95;;;7.97;;
71125;SDS011;58785;55.566;38.058;2023-08-20T05:14:58;14.80;;;8.00;;
71125;SDS011;58785;55.566;38.058;2023-08-20T05:17:23;13.55;;;7.70;;
71125;SDS011;58785;55.566;38.058;2023-08-20T05:19:49;14.77;;;7.97;;
71125;SDS011;58785;55.566;38.058;2023-08-20T05:22:15;14.95;;;8.02;;
71125;SDS011;58785;55.566;38.058;2023-08-20T05:24:40;15.90;;;8.97;;
71125;SDS011;58785;55.566;38.058;2023-08-20T05:29:36;16.27;;;8.20;;
71125;SDS011;58785;55.566;38.058;2023-08-20T05:32:03;18.35;;;8.63;;
71125;SDS011;58785;55.566;38.058;2023-08-20T05:34:29;17.48;;;8.20;;
71125;SDS011;58785;55.566;38.058;2023-08-20T05:36:54;15.43;;;9.03;;
71125;SDS011;58785;55.566;38.058;2023-08-20T05:39:20;15.13;;;8.98;;
71125;SDS011;58785;55.566;38.058;2023-08-20T05:41:46;16.33;;;9.00;;
71125;SDS011;58785;55.566;38.058;2023-08-20T05:44:11;15.65;;;8.27;;
71125;SDS011;58785;55.566;38.058;2023-08-20T05:46:37;15.17;;;8.47;;
71125;SDS011;58785;55.566;38.058;2023-08-20T05:49:02;17.60;;;9.00;;
71125;SDS011;58785;55.566;38.058;2023-08-20T05:51:28;17.57;;;9.60;;
71125;SDS011;58785;55.566;38.058;2023-08-20T05:53:54;16.30;;;8.90;;
71125;SDS011;58785;55.566;38.058;2023-08-20T05:56:19;14.13;;;7.80;;
71125;SDS011;58785;55.566;38.058;2023-08-20T05:58:45;19.40;;;8.80;;
71125;SDS011;58785;55.566;38.058;2023-08-20T06:01:11;14.00;;;8.63;;
71125;SDS011;58785;55.566;38.058;2023-08-20T06:03:36;16.83;;;8.70;;
71125;SDS011;58785;55.566;38.058;2023-08-20T06:06:02;15.00;;;7.32;;
71125;SDS011;58785;55.566;38.058;2023-08-20T06:08:28;14.93;;;7.38;;
71125;SDS011;58785;55.566;38.058;2023-08-20T06:10:53;14.13;;;7.63;;
71125;SDS011;58785;55.566;38.058;2023-08-20T06:13:19;14.88;;;8.55;;
71125;SDS011;58785;55.566;38.058;2023-08-20T06:15:45;15.23;;;8.73;;
71125;SDS011;58785;55.566;38.058;2023-08-20T06:18:10;32.45;;;14.63;;
71125;SDS011;58785;55.566;38.058;2023-08-20T06:20:36;39.80;;;18.77;;
71125;SDS011;58785;55.566;38.058;2023-08-20T06:23:02;16.75;;;9.45;;
71125;SDS011;58785;55.566;38.058;2023-08-20T06:25:28;20.33;;;11.10;;
71125;SDS011;58785;55.566;38.058;2023-08-20T06:27:54;13.17;;;7.27;;
71125;SDS011;58785;55.566;38.058;2023-08-20T06:30:20;13.93;;;7.30;;
71125;SDS011;58785;55.566;38.058;2023-08-20T06:32:45;14.37;;;8.60;;
71125;SDS011;58785;55.566;38.058;2023-08-20T06:35:11;12.23;;;7.80;;
71125;SDS011;58785;55.566;38.058;2023-08-20T06:37:38;13.77;;;8.40;;
71125;SDS011;58785;55.566;38.058;2023-08-20T06:40:05;16.20;;;8.68;;
71125;SDS011;58785;55.566;38.058;2023-08-20T06:42:32;13.45;;;8.93;;
71125;SDS011;58785;55.566;38.058;2023-08-20T06:44:57;15.48;;;8.55;;
71125;SDS011;58785;55.566;38.058;2023-08-20T06:47:23;15.47;;;9.83;;
71125;SDS011;58785;55.566;38.058;2023-08-20T06:49:49;15.80;;;9.70;;
71125;SDS011;58785;55.566;38.058;2023-08-20T06:52:16;19.38;;;10.88;;
71125;SDS011;58785;55.566;38.058;2023-08-20T06:54:42;14.48;;;8.02;;
71125;SDS011;58785;55.566;38.058;2023-08-20T06:57:07;16.88;;;9.10;;
71125;SDS011;58785;55.566;38.058;2023-08-20T06:59:33;15.03;;;8.23;;
71125;SDS011;58785;55.566;38.058;2023-08-20T07:01:59;16.27;;;8.57;;
71125;SDS011;58785;55.566;38.058;2023-08-20T07:04:24;22.23;;;11.13;;
71125;SDS011;58785;55.566;38.058;2023-08-20T07:06:50;16.42;;;9.55;;
71125;SDS011;58785;55.566;38.058;2023-08-20T07:09:17;15.38;;;7.53;;
71125;SDS011;58785;55.566;38.058;2023-08-20T07:11:42;13.33;;;7.03;;
71125;SDS011;58785;55.566;38.058;2023-08-20T07:14:08;11.73;;;6.38;;
71125;SDS011;58785;55.566;38.058;2023-08-20T07:16:34;11.93;;;6.23;;
71125;SDS011;58785;55.566;38.058;2023-08-20T07:19:00;11.40;;;6.72;;
71125;SDS011;58785;55.566;38.058;2023-08-20T07:21:25;11.73;;;6.67;;
71125;SDS011;58785;55.566;38.058;2023-08-20T07:23:51;12.57;;;6.00;;
71125;SDS011;58785;55.566;38.058;2023-08-20T07:26:17;15.37;;;7.73;;
71125;SDS011;58785;55.566;38.058;2023-08-20T07:28:42;13.07;;;7.53;;
71125;SDS011;58785;55.566;38.058;2023-08-20T07:31:27;12.32;;;7.43;;
71125;SDS011;58785;55.566;38.058;2023-08-20T07:33:57;12.52;;;6.63;;
71125;SDS011;58785;55.566;38.058;2023-08-20T07:36:23;16.53;;;7.77;;
71125;SDS011;58785;55.566;38.058;2023-08-20T07:38:50;16.25;;;7.80;;
71125;SDS011;58785;55.566;38.058;2023-08-20T07:41:17;13.80;;;8.23;;
71125;SDS011;58785;55.566;38.058;2023-08-20T07:43:45;16.70;;;7.88;;
71125;SDS011;58785;55.566;38.058;2023-08-20T07:46:11;16.55;;;8.35;;
71125;SDS011;58785;55.566;38.058;2023-08-20T07:48:37;16.43;;;7.83;;
71125;SDS011;58785;55.566;38.058;2023-08-20T07:51:04;13.48;;;8.20;;
71125;SDS011;58785;55.566;38.058;2023-08-20T07:53:30;16.35;;;8.80;;
71125;SDS011;58785;55.566;38.058;2023-08-20T07:55:58;14.30;;;8.25;;
71125;SDS011;58785;55.566;38.058;2023-08-20T07:58:27;12.13;;;7.33;;
71125;SDS011;58785;55.566;38.058;2023-08-20T08:00:58;11.80;;;7.70;;
71125;SDS011;58785;55.566;38.058;2023-08-20T08:03:24;13.95;;;8.27;;
71125;SDS011;58785;55.566;38.058;2023-08-20T08:05:55;13.45;;;7.72;;
71125;SDS011;58785;55.566;38.058;2023-08-20T08:08:21;11.02;;;6.93;;
71125;SDS011;58785;55.566;38.058;2023-08-20T08:10:47;15.35;;;8.40;;
71125;SDS011;58785;55.566;38.058;2023-08-20T08:13:14;13.07;;;7.57;;
71125;SDS011;58785;55.566;38.058;2023-08-20T08:15:44;11.82;;;6.97;;
71125;SDS011;58785;55.566;38.058;2023-08-20T08:18:09;11.57;;;7.43;;
71125;SDS011;58785;55.566;38.058;2023-08-20T08:20:35;16.23;;;7.83;;
71125;SDS011;58785;55.566;38.058;2023-08-20T08:23:01;11.63;;;6.97;;
71125;SDS011;58785;55.566;38.058;2023-08-20T08:25:27;13.88;;;7.10;;
71125;SDS011;58785;55.566;38.058;2023-08-20T08:27:53;12.10;;;7.65;;
71125;SDS011;58785;55.566;38.058;2023-08-20T08:30:19;11.17;;;6.57;;
71125;SDS011;58785;55.566;38.058;2023-08-20T08:32:45;12.82;;;6.78;;
71125;SDS011;58785;55.566;38.058;2023-08-20T08:35:10;13.43;;;7.50;;
71125;SDS011;58785;55.566;38.058;2023-08-20T08:37:36;12.65;;;7.63;;
71125;SDS011;58785;55.566;38.058;2023-08-20T08:40:02;14.55;;;8.15;;
71125;SDS011;58785;55.566;38.058;2023-08-20T08:42:34;10.27;;;6.60;;
71125;SDS011;58785;55.566;38.058;2023-08-20T08:45:00;12.23;;;6.43;;
71125;SDS011;58785;55.566;38.058;2023-08-20T08:47:30;12.43;;;7.20;;
71125;SDS011;58785;55.566;38.058;2023-08-20T08:49:56;12.23;;;7.88;;
71125;SDS011;58785;55.566;38.058;2023-08-20T08:52:22;12.15;;;7.20;;
71125;SDS011;58785;55.566;38.058;2023-08-20T08:54:49;11.53;;;7.37;;
71125;SDS011;58785;55.566;38.058;2023-08-20T08:57:15;13.90;;;6.80;;
71125;SDS011;58785;55.566;38.058;2023-08-20T08:59:42;12.23;;;7.35;;
71125;SDS011;58785;55.566;38.058;2023-08-20T09:02:08;14.85;;;7.90;;
71125;SDS011;58785;55.566;38.058;2023-08-20T09:04:39;12.77;;;7.80;;
71125;SDS011;58785;55.566;38.058;2023-08-20T09:07:06;13.07;;;7.45;;
71125;SDS011;58785;55.566;38.058;2023-08-20T09:09:37;12.90;;;7.20;;
71125;SDS011;58785;55.566;38.058;2023-08-20T09:12:12;13.50;;;7.75;;
71125;SDS011;58785;55.566;38.058;2023-08-20T09:14:51;12.95;;;8.00;;
71125;SDS011;58785;55.566;38.058;2023-08-20T09:17:17;14.80;;;7.30;;
71125;SDS011;58785;55.566;38.058;2023-08-20T09:19:47;12.93;;;7.55;;
71125;SDS011;58785;55.566;38.058;2023-08-20T09:22:13;12.73;;;7.47;;
71125;SDS011;58785;55.566;38.058;2023-08-20T09:24:46;12.70;;;7.95;;
71125;SDS011;58785;55.566;38.058;2023-08-20T09:27:17;13.13;;;7.70;;
71125;SDS011;58785;55.566;38.058;2023-08-20T09:29:46;14.40;;;7.63;;
71125;SDS011;58785;55.566;38.058;2023-08-20T09:32:20;13.20;;;7.82;;
71125;SDS011;58785;55.566;38.058;2023-08-20T09:34:47;13.55;;;7.18;;
71125;SDS011;58785;55.566;38.058;2023-08-20T09:37:14;12.80;;;6.35;;
71125;SDS011;58785;55.566;38.058;2023-08-20T09:39:41;11.20;;;6.83;;
71125;SDS011;58785;55.566;38.058;2023-08-20T09:42:08;11.70;;;6.63;;
71125;SDS011;58785;55.566;38.058;2023-08-20T09:44:35;12.15;;;7.40;;
71125;SDS011;58785;55.566;38.058;2023-08-20T09:47:05;13.10;;;7.53;;
71125;SDS011;58785;55.566;38.058;2023-08-20T09:49:44;12.48;;;7.63;;
71125;SDS011;58785;55.566;38.058;2023-08-20T09:52:14;15.15;;;7.93;;
71125;SDS011;58785;55.566;38.058;2023-08-20T09:57:37;11.80;;;7.20;;
71125;SDS011;58785;55.566;38.058;2023-08-20T10:00:05;11.18;;;7.13;;
71125;SDS011;58785;55.566;38.058;2023-08-20T10:02:35;12.07;;;7.45;;
71125;SDS011;58785;55.566;38.058;2023-08-20T10:05:04;13.38;;;7.18;;
71125;SDS011;58785;55.566;38.058;2023-08-20T10:07:31;10.65;;;6.72;;
71125;SDS011;58785;55.566;38.058;2023-08-20T10:09:57;11.68;;;7.05;;
71125;SDS011;58785;55.566;38.058;2023-08-20T10:12:28;13.67;;;7.30;;
71125;SDS011;58785;55.566;38.058;2023-08-20T10:14:58;12.03;;;7.37;;
71125;SDS011;58785;55.566;38.058;2023-08-20T10:17:25;11.57;;;7.32;;
71125;SDS011;58785;55.566;38.058;2023-08-20T10:19:51;10.27;;;7.00;;
71125;SDS011;58785;55.566;38.058;2023-08-20T10:22:18;10.18;;;6.38;;
71125;SDS011;58785;55.566;38.058;2023-08-20T10:24:47;12.30;;;7.20;;
71125;SDS011;58785;55.566;38.058;2023-08-20T10:27:27;11.02;;;7.13;;
71125;SDS011;58785;55.566;38.058;2023-08-20T10:29:56;11.45;;;7.43;;
71125;SDS011;58785;55.566;38.058;2023-08-20T10:35:22;12.30;;;7.38;;
71125;SDS011;58785;55.566;38.058;2023-08-20T10:38:35;13.25;;;7.82;;
71125;SDS011;58785;55.566;38.058;2023-08-20T10:43:37;12.43;;;8.13;;
71125;SDS011;58785;55.566;38.058;2023-08-20T10:46:17;12.25;;;7.53;;
71125;SDS011;58785;55.566;38.058;2023-08-20T10:48:54;13.60;;;9.60;;
71125;SDS011;58785;55.566;38.058;2023-08-20T10:51:37;11.90;;;7.47;;
71125;SDS011;58785;55.566;38.058;2023-08-20T10:54:07;10.33;;;6.67;;
71125;SDS011;58785;55.566;38.058;2023-08-20T10:56:44;12.13;;;7.53;;
71125;SDS011;58785;55.566;38.058;2023-08-20T11:01:47;11.02;;;6.70;;
71125;SDS011;58785;55.566;38.058;2023-08-20T11:04:21;13.25;;;7.22;;
71125;SDS011;58785;55.566;38.058;2023-08-20T11:06:57;11.73;;;6.70;;
71125;SDS011;58785;55.566;38.058;2023-08-20T11:09:25;11.57;;;7.00;;
71125;SDS011;58785;55.566;38.058;2023-08-20T11:11:56;12.90;;;7.50;;
71125;SDS011;58785;55.566;38.058;2023-08-20T11:14:22;11.55;;;6.72;;
71125;SDS011;58785;55.566;38.058;2023-08-20T11:16:49;11.38;;;7.30;;
71125;SDS011;58785;55.566;38.058;2023-08-20T11:19:19;13.18;;;7.45;;
71125;SDS011;58785;55.566;38.058;2023-08-20T11:21:46;11.87;;;7.33;;
71125;SDS011;58785;55.566;38.058;2023-08-20T11:24:13;9.80;;;7.03;;
71125;SDS011;58785;55.566;38.058;2023-08-20T11:26:39;13.80;;;7.30;;
71125;SDS011;58785;55.566;38.058;2023-08-20T11:29:10;12.60;;;7.15;;
71125;SDS011;58785;55.566;38.058;2023-08-20T11:31:38;10.40;;;6.97;;
71125;SDS011;58785;55.566;38.058;2023-08-20T11:34:05;13.13;;;7.17;;
71125;SDS011;58785;55.566;38.058;2023-08-20T11:36:31;13.50;;;7.53;;
71125;SDS011;58785;55.566;38.058;2023-08-20T11:38:57;11.52;;;7.00;;
71125;SDS011;58785;55.566;38.058;2023-08-20T11:41:24;12.50;;;7.20;;
71125;SDS011;58785;55.566;38.058;2023-08-20T11:43:52;13.05;;;7.05;;
71125;SDS011;58785;55.566;38.058;2023-08-20T11:46:19;12.00;;;7.05;;
71125;SDS011;58785;55.566;38.058;2023-08-20T11:51:24;9.83;;;7.07;;
71125;SDS011;58785;55.566;38.058;2023-08-20T11:53:51;15.68;;;7.63;;
71125;SDS011;58785;55.566;38.058;2023-08-20T11:56:17;10.30;;;7.10;;
71125;SDS011;58785;55.566;38.058;2023-08-20T11:58:43;12.85;;;7.47;;
71125;SDS011;58785;55.566;38.058;2023-08-20T12:01:15;12.27;;;7.93;;
71125;SDS011;58785;55.566;38.058;2023-08-20T12:03:40;13.80;;;7.07;;
71125;SDS011;58785;55.566;38.058;2023-08-20T12:08:53;11.20;;;7.47;;
71125;SDS011;58785;55.566;38.058;2023-08-20T12:11:23;13.40;;;7.37;;
71125;SDS011;58785;55.566;38.058;2023-08-20T12:13:52;11.85;;;7.63;;
71125;SDS011;58785;55.566;38.058;2023-08-20T12:16:20;18.88;;;7.68;;
71125;SDS011;58785;55.566;38.058;2023-08-20T12:18:57;11.48;;;7.40;;
71125;SDS011;58785;55.566;38.058;2023-08-20T12:21:23;12.47;;;8.20;;
71125;SDS011;58785;55.566;38.058;2023-08-20T12:23:48;11.27;;;6.10;;
71125;SDS011;58785;55.566;38.058;2023-08-20T12:26:14;10.93;;;4.40;;
71125;SDS011;58785;55.566;38.058;2023-08-20T12:28:39;12.38;;;4.30;;
71125;SDS011;58785;55.566;38.058;2023-08-20T12:31:07;9.37;;;3.60;;
71125;SDS011;58785;55.566;38.058;2023-08-20T12:33:33;11.10;;;3.80;;
71125;SDS011;58785;55.566;38.058;2023-08-20T12:35:58;8.57;;;3.60;;
71125;SDS011;58785;55.566;38.058;2023-08-20T12:38:24;9.37;;;4.50;;
71125;SDS011;58785;55.566;38.058;2023-08-20T12:40:50;11.02;;;4.22;;
71125;SDS011;58785;55.566;38.058;2023-08-20T12:43:16;8.80;;;4.10;;
71125;SDS011;58785;55.566;38.058;2023-08-20T12:45:42;13.37;;;3.87;;
71125;SDS011;58785;55.566;38.058;2023-08-20T12:48:08;8.75;;;3.70;;
71125;SDS011;58785;55.566;38.058;2023-08-20T12:50:34;9.90;;;3.97;;
71125;SDS011;58785;55.566;38.058;2023-08-20T12:53:00;8.95;;;3.83;;
71125;SDS011;58785;55.566;38.058;2023-08-20T12:55:27;10.60;;;3.53;;
71125;SDS011;58785;55.566;38.058;2023-08-20T12:57:58;8.07;;;3.30;;
71125;SDS011;58785;55.566;38.058;2023-08-20T13:00:34;11.25;;;3.47;;
71125;SDS011;58785;55.566;38.058;2023-08-20T13:03:00;7.68;;;3.20;;
71125;SDS011;58785;55.566;38.058;2023-08-20T13:05:26;8.85;;;3.20;;
71125;SDS011;58785;55.566;38.058;2023-08-20T13:07:53;7.93;;;3.20;;
71125;SDS011;58785;55.566;38.058;2023-08-20T13:10:19;11.40;;;3.67;;
71125;SDS011;58785;55.566;38.058;2023-08-20T13:12:47;10.05;;;4.05;;
71125;SDS011;58785;55.566;38.058;2023-08-20T13:15:18;10.70;;;4.35;;
71125;SDS011;58785;55.566;38.058;2023-08-20T13:17:45;8.55;;;4.00;;
71125;SDS011;58785;55.566;38.058;2023-08-20T13:20:12;11.00;;;3.73;;
71125;SDS011;58785;55.566;38.058;2023-08-20T13:22:38;8.63;;;4.07;;
71125;SDS011;58785;55.566;38.058;2023-08-20T13:25:04;7.95;;;4.78;;
71125;SDS011;58785;55.566;38.058;2023-08-20T13:27:30;12.15;;;5.53;;
71125;SDS011;58785;55.566;38.058;2023-08-20T13:29:57;13.17;;;5.30;;
71125;SDS011;58785;55.566;38.058;2023-08-20T13:32:23;13.02;;;5.82;;
71125;SDS011;58785;55.566;38.058;2023-08-20T13:34:52;12.80;;;6.60;;
71125;SDS011;58785;55.566;38.058;2023-08-20T13:37:18;12.73;;;5.78;;
71125;SDS011;58785;55.566;38.058;2023-08-20T13:39:43;10.60;;;6.00;;
71125;SDS011;58785;55.566;38.058;2023-08-20T13:42:09;8.70;;;4.88;;
71125;SDS011;58785;55.566;38.058;2023-08-20T13:44:36;8.38;;;3.00;;
71125;SDS011;58785;55.566;38.058;2023-08-20T13:47:02;6.83;;;4.20;;
71125;SDS011;58785;55.566;38.058;2023-08-20T13:49:27;8.55;;;3.17;;
71125;SDS011;58785;55.566;38.058;2023-08-20T13:51:57;5.88;;;3.03;;
71125;SDS011;58785;55.566;38.058;2023-08-20T13:54:23;6.93;;;3.00;;
71125;SDS011;58785;55.566;38.058;2023-08-20T13:56:49;6.67;;;2.70;;
71125;SDS011;58785;55.566;38.058;2023-08-20T13:59:15;7.15;;;2.95;;
71125;SDS011;58785;55.566;38.058;2023-08-20T14:01:41;7.53;;;3.13;;
71125;SDS011;58785;55.566;38.058;2023-08-20T14:04:07;6.13;;;2.97;;
71125;SDS011;58785;55.566;38.058;2023-08-20T14:06:32;6.43;;;2.92;;
71125;SDS011;58785;55.566;38.058;2023-08-20T14:08:58;6.87;;;2.43;;
71125;SDS011;58785;55.566;38.058;2023-08-20T14:11:23;6.50;;;2.45;;
71125;SDS011;58785;55.566;38.058;2023-08-20T14:13:49;6.13;;;2.83;;
71125;SDS011;58785;55.566;38.058;2023-08-20T14:16:15;5.90;;;2.75;;
71125;SDS011;58785;55.566;38.058;2023-08-20T14:18:40;7.77;;;2.90;;
71125;SDS011;58785;55.566;38.058;2023-08-20T14:21:06;7.00;;;3.03;;
71125;SDS011;58785;55.566;38.058;2023-08-20T14:23:32;8.77;;;5.60;;
71125;SDS011;58785;55.566;38.058;2023-08-20T14:25:58;7.15;;;4.05;;
71125;SDS011;58785;55.566;38.058;2023-08-20T14:28:23;7.25;;;3.28;;
71125;SDS011;58785;55.566;38.058;2023-08-20T14:30:49;9.23;;;3.90;;
71125;SDS011;58785;55.566;38.058;2023-08-20T14:33:16;8.10;;;3.70;;
71125;SDS011;58785;55.566;38.058;2023-08-20T14:35:42;7.03;;;3.97;;
71125;SDS011;58785;55.566;38.058;2023-08-20T14:38:07;7.97;;;4.30;;
71125;SDS011;58785;55.566;38.058;2023-08-20T14:40:36;9.02;;;4.20;;